CheckWX is a tool to help pilots better visualize weather data.  It is not intended as a substitute for an official pre-flight weather briefing.

20:10:23 UTC

KPCD METAR
Perryville Regional Airport
Perryville, Missouri, USA
Current

35 mins ago

KPCD 231935Z AUTO 33005KT 10SM CLR 23/16 A2999 RMK AO2 T02300155
Observed
Apr-23 @ 19:35 UTC
Wind
  • 330° at 5 KTS
Visibility
10 SM
Flight Rules
VFR
Cloud Levels
  • Clear skies
Temperature
23°C / 73°F
Dewpoint
16°C / 61°F
Humidity
65%
Altimeter
29.99" Hg
Pressure
1015.62 hPa
Previous

55 mins ago

KPCD 231915Z AUTO 01003KT 10SM CLR 23/15 A3000 RMK AO2 T02290152
Observed
Apr-23 @ 19:15 UTC
Wind
  • 010° at 3 KTS
Visibility
10 SM
Flight Rules
VFR
Cloud Levels
  • Clear skies
Temperature
23°C / 73°F
Dewpoint
15°C / 59°F
Humidity
61%
Altimeter
30" Hg
Pressure
1015.92 hPa
Previous

1 hour ago

KPCD 231855Z AUTO 34005KT 10SM SCT060 SCT075 23/15 A3000 RMK AO2 LTG DSNT SE T02250151
Observed
Apr-23 @ 18:55 UTC
Wind
  • 340° at 5 KTS
Visibility
10 SM
Flight Rules
VFR
Cloud Levels
  • Scattered at 6,000' AGL
  • Scattered at 7,500' AGL
Temperature
23°C / 73°F
Dewpoint
15°C / 59°F
Humidity
61%
Altimeter
30" Hg
Pressure
1015.92 hPa